Observation data for Plainview on 05/27/2019      Previous  Date  Next       Current Mesonet Observations  Soil Data  Daily Summary Page  Observations in Plain Language
KPVS 270500Z 19006KT 20/18 A2989 RMK A01 T01990182  RH  093%=      5-min Rain = 0
KPVS 270505Z 18007KT 20/18 A2989 RMK A01 T01990182  RH  093%=      5-min Rain = 0
KPVS 270510Z 17009KT 20/18 A2989 RMK A01 T01990182  RH  093%=      5-min Rain = 0
KPVS 270515Z 17011KT 20/18 A2988 RMK A01 T01990183  RH  093%=      5-min Rain = 0
KPVS 270520Z 17010KT 20/18 A2988 RMK A01 T01990182  RH  092%=      5-min Rain = 0
KPVS 270525Z 18007KT 20/18 A2988 RMK A01 T01980182  RH  092%=      5-min Rain = 0
KPVS 270530Z 17009KT 20/18 A2988 RMK A01 T01970181  RH  093%=      5-min Rain = 0
KPVS 270535Z 22008KT 20/18 A2989 RMK A01 T01960182  RH  093%=      5-min Rain = 0
KPVS 270540Z 19010G16KT 20/18 A2988 RMK A01 T01950181  RH  094%=      5-min Rain = 0
KPVS 270545Z 19011G17KT 20/18 A2988 RMK A01 T01950182  RH  094%=      5-min Rain = 0
KPVS 270550Z 22007G12KT 20/18 A2989 RMK A01 T01960181  RH  094%=      5-min Rain = 0
KPVS 270555Z 21008KT 20/18 A2989 RMK A01 T01950181  RH  094%=      5-min Rain = 0
KPVS 270600Z 19009KT 20/18 A2989 RMK A01 T01950181  RH  094%=      5-min Rain = 0
KPVS 270605Z 19008KT 20/18 A2989 RMK A01 T01950181  RH  094%=      5-min Rain = 0
KPVS 270610Z 19009KT 19/18 A2988 RMK A01 T01940180  RH  094%=      5-min Rain = 0
KPVS 270615Z 18009KT 19/18 A2989 RMK A01 T01930180  RH  094%=      5-min Rain = 0
KPVS 270620Z 18009KT 19/18 A2989 RMK A01 T01920179  RH  095%=      5-min Rain = 0
KPVS 270625Z 18008KT 19/18 A2989 RMK A01 T01910179  RH  095%=      5-min Rain = 0
KPVS 270630Z 18009KT 19/18 A2989 RMK A01 T01910179  RH  095%=      5-min Rain = 0
KPVS 270635Z 17010KT 19/18 A2989 RMK A01 T01910179  RH  095%=      5-min Rain = 0
KPVS 270640Z 18009KT 19/18 A2989 RMK A01 T01910178  RH  095%=      5-min Rain = 0
KPVS 270645Z 17008G13KT 19/18 A2989 RMK A01 T01910178  RH  095%=      5-min Rain = 0
KPVS 270650Z 17008KT 19/18 A2989 RMK A01 T01900178  RH  095%=      5-min Rain = 0
KPVS 270655Z 17008KT 19/18 A2989 RMK A01 T01890177  RH  095%=      5-min Rain = 0
KPVS 270700Z 17008KT 19/18 A2989 RMK A01 T01890177  RH  095%=      5-min Rain = 0
KPVS 270705Z 17008KT 19/18 A2989 RMK A01 T01880177  RH  095%=      5-min Rain = 0
KPVS 270710Z 17008KT 19/18 A2989 RMK A01 T01880176  RH  095%=      5-min Rain = 0
KPVS 270715Z 17006KT 19/18 A2988 RMK A01 T01870176  RH  096%=      5-min Rain = 0
KPVS 270720Z 17007KT 19/18 A2988 RMK A01 T01860176  RH  096%=      5-min Rain = 0
KPVS 270725Z 17007KT 19/18 A2988 RMK A01 T01860175  RH  096%=      5-min Rain = 0
KPVS 270730Z 16008KT 19/18 A2988 RMK A01 T01860176  RH  096%=      5-min Rain = 0
KPVS 270735Z 16007KT 19/18 A2987 RMK A01 T01860175  RH  096%=      5-min Rain = 0
KPVS 270740Z 17007KT 19/18 A2987 RMK A01 T01850175  RH  096%=      5-min Rain = 0
KPVS 270745Z 17007KT 19/18 A2987 RMK A01 T01850175  RH  096%=      5-min Rain = 0
KPVS 270750Z 17008KT 19/18 A2987 RMK A01 T01850175  RH  096%=      5-min Rain = 0
KPVS 270755Z 17008KT 18/17 A2987 RMK A01 T01840174  RH  096%=      5-min Rain = 0
KPVS 270800Z 17008KT 19/18 A2987 RMK A01 T01850175  RH  096%=      5-min Rain = 0
KPVS 270805Z 17009KT 19/18 A2987 RMK A01 T01860175  RH  096%=      5-min Rain = 0
KPVS 270810Z 17009KT 19/18 A2986 RMK A01 T01860175  RH  095%=      5-min Rain = 0
KPVS 270815Z 17010KT 19/18 A2986 RMK A01 T01880175  RH  095%=      5-min Rain = 0
KPVS 270820Z 17010KT 19/18 A2986 RMK A01 T01890175  RH  094%=      5-min Rain = 0
KPVS 270825Z 17010KT 19/18 A2986 RMK A01 T01900175  RH  093%=      5-min Rain = 0
KPVS 270830Z 18010KT 19/18 A2985 RMK A01 T01900175  RH  093%=      5-min Rain = 0
KPVS 270835Z 17010KT 19/18 A2985 RMK A01 T01890175  RH  093%=      5-min Rain = 0
KPVS 270840Z 18011KT 19/18 A2985 RMK A01 T01900175  RH  093%=      5-min Rain = 0
KPVS 270845Z 18010KT 19/18 A2985 RMK A01 T01910175  RH  093%=      5-min Rain = 0
KPVS 270850Z 17009KT 19/17 A2985 RMK A01 T01910174  RH  092%=      5-min Rain = 0
KPVS 270855Z 17008KT 19/17 A2985 RMK A01 T01900174  RH  093%=      5-min Rain = 0
KPVS 270900Z 17007KT 19/17 A2985 RMK A01 T01880173  RH  093%=      5-min Rain = 0
KPVS 270905Z 17007KT 19/17 A2986 RMK A01 T01870173  RH  094%=      5-min Rain = 0
KPVS 270910Z 17007KT 19/17 A2986 RMK A01 T01860172  RH  094%=      5-min Rain = 0
KPVS 270915Z 17005KT 19/17 A2986 RMK A01 T01850172  RH  094%=      5-min Rain = 0
KPVS 270920Z 16005KT 18/17 A2986 RMK A01 T01840172  RH  095%=      5-min Rain = 0
KPVS 270925Z 16005KT 18/17 A2986 RMK A01 T01840172  RH  095%=      5-min Rain = 0
KPVS 270930Z 16005KT 18/17 A2986 RMK A01 T01840172  RH  095%=      5-min Rain = 0
KPVS 270935Z 17005KT 18/17 A2986 RMK A01 T01840171  RH  095%=      5-min Rain = 0
KPVS 270940Z 16005KT 18/17 A2986 RMK A01 T01830171  RH  095%=      5-min Rain = 0
KPVS 270945Z 16005KT 18/17 A2986 RMK A01 T01820170  RH  095%=      5-min Rain = 0
KPVS 270950Z 16005KT 18/17 A2986 RMK A01 T01810170  RH  096%=      5-min Rain = 0
KPVS 270955Z 17004KT 18/17 A2986 RMK A01 T01810170  RH  096%=      5-min Rain = 0
KPVS 271000Z 17004KT 18/17 A2986 RMK A01 T01800170  RH  096%=      5-min Rain = 0
KPVS 271005Z 18005KT 18/17 A2986 RMK A01 T01790169  RH  096%=      5-min Rain = 0
KPVS 271010Z 18005KT 18/17 A2986 RMK A01 T01780168  RH  096%=      5-min Rain = 0
KPVS 271015Z 18004KT 18/17 A2986 RMK A01 T01770168  RH  097%=      5-min Rain = 0
KPVS 271020Z 19004KT 18/17 A2987 RMK A01 T01760167  RH  097%=      5-min Rain = 0
KPVS 271025Z 19005KT 18/17 A2986 RMK A01 T01750167  RH  097%=      5-min Rain = 0
KPVS 271030Z 19005KT 18/17 A2987 RMK A01 T01750167  RH  097%=      5-min Rain = 0
KPVS 271035Z 19004KT 18/17 A2987 RMK A01 T01750167  RH  097%=      5-min Rain = 0
KPVS 271040Z 19005KT 18/17 A2987 RMK A01 T01750168  RH  098%=      5-min Rain = 0
KPVS 271045Z 18006KT 18/17 A2987 RMK A01 T01760168  RH  098%=      5-min Rain = 0
KPVS 271050Z 18005KT 18/17 A2987 RMK A01 T01750167  RH  097%=      5-min Rain = 0
KPVS 271055Z 18005KT 17/17 A2987 RMK A01 T01740167  RH  098%=      5-min Rain = 0
KPVS 271100Z 19004KT 17/17 A2987 RMK A01 T01740166  RH  098%=      5-min Rain = 0
KPVS 271105Z 19004KT 17/17 A2987 RMK A01 T01720165  RH  098%=      5-min Rain = 0
KPVS 271110Z 19004KT 17/17 A2987 RMK A01 T01720165  RH  098%=      5-min Rain = 0
KPVS 271115Z 19004KT 17/17 A2987 RMK A01 T01710165  RH  098%=      5-min Rain = 0
KPVS 271120Z 19004KT 17/16 A2987 RMK A01 T01700164  RH  098%=      5-min Rain = 0
KPVS 271125Z 19005KT 17/16 A2988 RMK A01 T01700164  RH  099%=      5-min Rain = 0
KPVS 271130Z 19005KT 17/16 A2988 RMK A01 T01690163  RH  099%=      5-min Rain = 0
KPVS 271135Z 19004KT 17/16 A2988 RMK A01 T01680163  RH  099%=      5-min Rain = 0
KPVS 271140Z 19004KT 17/16 A2988 RMK A01 T01680163  RH  099%=      5-min Rain = 0
KPVS 271145Z 19004KT 17/16 A2988 RMK A01 T01670162  RH  099%=      5-min Rain = 0
KPVS 271150Z 19004KT 17/16 A2988 RMK A01 T01660162  RH  099%=      5-min Rain = 0
KPVS 271155Z 19004KT 17/16 A2988 RMK A01 T01660162  RH  100%=      5-min Rain = 0
KPVS 271200Z 18004KT 17/16 A2988 RMK A01 T01660163  RH  100%=      5-min Rain = 0
KPVS 271205Z 18004KT 17/16 A2988 RMK A01 T01660162  RH  100%=      5-min Rain = 0
KPVS 271210Z 17004KT 17/16 A2988 RMK A01 T01660163  RH  100%=      5-min Rain = 0
KPVS 271215Z 18004KT 17/16 A2988 RMK A01 T01670164  RH  100%=      5-min Rain = 0
KPVS 271220Z 18004KT 17/17 A2988 RMK A01 T01680165  RH  100%=      5-min Rain = 0
KPVS 271225Z 18004KT 17/17 A2989 RMK A01 T01690166  RH  100%=      5-min Rain = 0
KPVS 271230Z 18004KT 17/17 A2989 RMK A01 T01700166  RH  100%=      5-min Rain = 0
KPVS 271235Z 18004KT 17/17 A2989 RMK A01 T01710167  RH  100%=      5-min Rain = 0
KPVS 271240Z 18004KT 17/17 A2989 RMK A01 T01720168  RH  100%=      5-min Rain = 0
KPVS 271245Z 18004KT 17/17 A2989 RMK A01 T01740170  RH  100%=      5-min Rain = 0
KPVS 271250Z 19003KT 18/17 A2989 RMK A01 T01760172  RH  100%=      5-min Rain = 0
KPVS 271255Z 19005KT 18/17 A2989 RMK A01 T01770173  RH  100%=      5-min Rain = 0
KPVS 271300Z 19005KT 18/17 A2989 RMK A01 T01780173  RH  099%=      5-min Rain = 0
KPVS 271305Z 19005KT 18/17 A2989 RMK A01 T01790174  RH  099%=      5-min Rain = 0
KPVS 271310Z 18005KT 18/18 A2989 RMK A01 T01810175  RH  099%=      5-min Rain = 0
KPVS 271315Z 19006KT 18/18 A2989 RMK A01 T01820177  RH  099%=      5-min Rain = 0
KPVS 271320Z 19006KT 18/18 A2989 RMK A01 T01840178  RH  099%=      5-min Rain = 0
KPVS 271325Z 19006KT 19/18 A2989 RMK A01 T01860179  RH  098%=      5-min Rain = 0
KPVS 271330Z 19006KT 19/18 A2989 RMK A01 T01880181  RH  098%=      5-min Rain = 0
KPVS 271335Z 19007KT 19/18 A2989 RMK A01 T01900182  RH  097%=      5-min Rain = 0
KPVS 271340Z 19007KT 19/18 A2989 RMK A01 T01920183  RH  097%=      5-min Rain = 0
KPVS 271345Z 20007KT 19/18 A2989 RMK A01 T01940183  RH  096%=      5-min Rain = 0
KPVS 271350Z 20008KT 20/18 A2989 RMK A01 T01950184  RH  096%=      5-min Rain = 0
KPVS 271355Z 21009KT 20/19 A2989 RMK A01 T01970185  RH  096%=      5-min Rain = 0
KPVS 271400Z 20007G12KT 20/19 A2989 RMK A01 T02000189  RH  096%=      5-min Rain = 0
KPVS 271405Z 20008KT 20/19 A2989 RMK A01 T02030190  RH  095%=      5-min Rain = 0
KPVS 271410Z 21010KT 21/19 A2989 RMK A01 T02060191  RH  094%=      5-min Rain = 0
KPVS 271415Z 21009G15KT 21/19 A2989 RMK A01 T02070191  RH  093%=      5-min Rain = 0
KPVS 271420Z 21011G16KT 21/19 A2989 RMK A01 T02090190  RH  091%=      5-min Rain = 0
KPVS 271425Z 21011G16KT 21/19 A2989 RMK A01 T02110191  RH  091%=      5-min Rain = 0
KPVS 271430Z 21011G16KT 21/19 A2989 RMK A01 T02130191  RH  090%=      5-min Rain = 0
KPVS 271435Z 22010G15KT 22/19 A2989 RMK A01 T02150192  RH  089%=      5-min Rain = 0
KPVS 271440Z 22012G18KT 22/19 A2989 RMK A01 T02160189  RH  087%=      5-min Rain = 0
KPVS 271445Z 23013G19KT 22/19 A2989 RMK A01 T02150187  RH  086%=      5-min Rain = 0
KPVS 271450Z 22013G19KT 22/19 A2989 RMK A01 T02170188  RH  086%=      5-min Rain = 0
KPVS 271455Z 21014G19KT 22/19 A2989 RMK A01 T02180187  RH  085%=      5-min Rain = 0
KPVS 271500Z 22011G17KT 22/19 A2989 RMK A01 T02210189  RH  084%=      5-min Rain = 0
KPVS 271505Z 21010G15KT 22/19 A2989 RMK A01 T02240190  RH  083%=      5-min Rain = 0
KPVS 271510Z 21013G19KT 23/19 A2989 RMK A01 T02250187  RH  081%=      5-min Rain = 0
KPVS 271515Z 22013KT 22/19 A2989 RMK A01 T02240185  RH  081%=      5-min Rain = 0
KPVS 271520Z 21012KT 23/19 A2988 RMK A01 T02260185  RH  080%=      5-min Rain = 0
KPVS 271525Z 22011G16KT 23/19 A2988 RMK A01 T02290187  RH  079%=      5-min Rain = 0
KPVS 271530Z 22012G18KT 23/18 A2988 RMK A01 T02300184  RH  077%=      5-min Rain = 0
KPVS 271535Z 22011KT 23/18 A2988 RMK A01 T02320183  RH  076%=      5-min Rain = 0
KPVS 271540Z 21010KT 23/19 A2988 RMK A01 T02330185  RH  076%=      5-min Rain = 0
KPVS 271545Z 22008G14KT 24/19 A2988 RMK A01 T02370186  RH  075%=      5-min Rain = 0
KPVS 271550Z 23010KT 24/18 A2988 RMK A01 T02400184  RH  073%=      5-min Rain = 0
KPVS 271555Z 22011KT 24/18 A2988 RMK A01 T02400182  RH  072%=      5-min Rain = 0
KPVS 271600Z 23010KT 24/18 A2988 RMK A01 T02430181  RH  070%=      5-min Rain = 0.01
KPVS 271605Z 23009G14KT 24/18 A2988 RMK A01 T02440177  RH  068%=      5-min Rain = 0
KPVS 271610Z 23010G15KT 25/17 A2988 RMK A01 T02460173  RH  065%=      5-min Rain = 0
KPVS 271615Z 23012KT 25/16 A2988 RMK A01 T02480161  RH  060%=      5-min Rain = 0
KPVS 271620Z 24011KT 25/16 A2988 RMK A01 T02490162  RH  060%=      5-min Rain = 0
KPVS 271625Z 23010KT 25/17 A2988 RMK A01 T02510166  RH  061%=      5-min Rain = 0
KPVS 271630Z 22011KT 25/16 A2988 RMK A01 T02510162  RH  059%=      5-min Rain = 0
KPVS 271635Z 22009KT 25/16 A2988 RMK A01 T02530161  RH  058%=      5-min Rain = 0
KPVS 271640Z 22010KT 26/16 A2988 RMK A01 T02550164  RH  059%=      5-min Rain = 0
KPVS 271645Z 22010G16KT 26/16 A2988 RMK A01 T02570155  RH  055%=      5-min Rain = 0
KPVS 271650Z 22008G13KT 26/15 A2987 RMK A01 T02590147  RH  051%=      5-min Rain = 0
KPVS 271655Z 22010KT 26/15 A2987 RMK A01 T02610148  RH  051%=      5-min Rain = 0
KPVS 271700Z 22010G15KT 26/14 A2987 RMK A01 T02620138  RH  047%=      5-min Rain = 0
KPVS 271705Z 22011KT 26/14 A2987 RMK A01 T02630135  RH  046%=      5-min Rain = 0
KPVS 271710Z 23009G15KT 27/13 A2987 RMK A01 T02670133  RH  044%=      5-min Rain = 0
KPVS 271715Z 22010G16KT 27/12 A2986 RMK A01 T02690120  RH  040%=      5-min Rain = 0
KPVS 271720Z 23010KT 27/13 A2986 RMK A01 T02690128  RH  043%=      5-min Rain = 0
KPVS 271725Z 22010G15KT 27/13 A2986 RMK A01 T02700129  RH  043%=      5-min Rain = 0
KPVS 271730Z 21011G16KT 27/11 A2986 RMK A01 T02720112  RH  038%=      5-min Rain = 0
KPVS 271735Z 22012G20KT 28/10 A2986 RMK A01 T02750103  RH  035%=      5-min Rain = 0
KPVS 271740Z 21012G18KT 28/11 A2986 RMK A01 T02760106  RH  035%=      5-min Rain = 0
KPVS 271745Z 22012G19KT 28/10 A2986 RMK A01 T02760100  RH  034%=      5-min Rain = 0
KPVS 271750Z 21015KT 28/09 A2986 RMK A01 T02770094  RH  032%=      5-min Rain = 0
KPVS 271755Z 23014KT 28/09 A2986 RMK A01 T02780091  RH  032%=      5-min Rain = 0
KPVS 271800Z 23010G15KT 28/10 A2986 RMK A01 T02790099  RH  033%=      5-min Rain = 0
KPVS 271805Z 22013G18KT 28/09 A2986 RMK A01 T02810091  RH  031%=      5-min Rain = 0
KPVS 271810Z 23013G21KT 28/09 A2985 RMK A01 T02800088  RH  030%=      5-min Rain = 0
KPVS 271815Z 22013G20KT 28/07 A2985 RMK A01 T02830073  RH  027%=      5-min Rain = 0
KPVS 271820Z 22015G23KT 29/07 A2985 RMK A01 T02850068  RH  026%=      5-min Rain = 0
KPVS 271825Z 22016G22KT 29/06 A2985 RMK A01 T02860060  RH  024%=      5-min Rain = 0
KPVS 271830Z 23015G21KT 29/07 A2985 RMK A01 T02870067  RH  025%=      5-min Rain = 0
KPVS 271835Z 23013G21KT 29/07 A2985 RMK A01 T02870071  RH  026%=      5-min Rain = 0
KPVS 271840Z 23014G19KT 29/07 A2985 RMK A01 T02880069  RH  025%=      5-min Rain = 0
KPVS 271845Z 22014G21KT 29/06 A2984 RMK A01 T02880062  RH  024%=      5-min Rain = 0
KPVS 271850Z 21014KT 29/06 A2984 RMK A01 T02880061  RH  024%=      5-min Rain = 0
KPVS 271855Z 22013G19KT 29/06 A2984 RMK A01 T02900064  RH  024%=      5-min Rain = 0
KPVS 271900Z 23012G19KT 29/06 A2984 RMK A01 T02910063  RH  024%=      5-min Rain = 0
KPVS 271905Z 23010G17KT 29/07 A2983 RMK A01 T02900069  RH  025%=      5-min Rain = 0
KPVS 271910Z 23012G19KT 29/06 A2983 RMK A01 T02900064  RH  024%=      5-min Rain = 0
KPVS 271915Z 23011G18KT 29/07 A2983 RMK A01 T02900072  RH  026%=      5-min Rain = 0
KPVS 271920Z 23013G19KT 29/07 A2982 RMK A01 T02940073  RH  025%=      5-min Rain = 0
KPVS 271925Z 23010G15KT 29/07 A2982 RMK A01 T02930070  RH  025%=      5-min Rain = 0
KPVS 271930Z 22010KT 30/07 A2982 RMK A01 T02960072  RH  025%=      5-min Rain = 0
KPVS 271935Z 21013G19KT 30/07 A2982 RMK A01 T03000067  RH  023%=      5-min Rain = 0
KPVS 271940Z 20013G20KT 30/06 A2981 RMK A01 T03030056  RH  021%=      5-min Rain = 0
KPVS 271945Z 21014G20KT 30/06 A2981 RMK A01 T03030058  RH  022%=      5-min Rain = 0
KPVS 271950Z 21014KT 30/05 A2981 RMK A01 T03020052  RH  021%=      5-min Rain = 0
KPVS 271955Z 22013G21KT 30/06 A2981 RMK A01 T03040058  RH  022%=      5-min Rain = 0
KPVS 272000Z 22015G21KT 30/05 A298 RMK A01 T03040053  RH  021%=      5-min Rain = 0
KPVS 272005Z 21015KT 31/05 A298 RMK A01 T03050051  RH  020%=      5-min Rain = 0
KPVS 272010Z 20016G21KT 31/05 A298 RMK A01 T03060047  RH  020%=      5-min Rain = 0
KPVS 272015Z 19016G21KT 31/05 A2979 RMK A01 T03080053  RH  020%=      5-min Rain = 0
KPVS 272020Z 20016G21KT 31/05 A2979 RMK A01 T03080051  RH  020%=      5-min Rain = 0
KPVS 272025Z 18016G22KT 31/06 A2979 RMK A01 T03090057  RH  021%=      5-min Rain = 0
KPVS 272030Z 18012G19KT 31/06 A2979 RMK A01 T03110060  RH  021%=      5-min Rain = 0
KPVS 272035Z 19016G23KT 31/06 A2978 RMK A01 T03120064  RH  021%=      5-min Rain = 0
KPVS 272040Z 19015G21KT 31/06 A2978 RMK A01 T03120061  RH  021%=      5-min Rain = 0
KPVS 272045Z 19015G22KT 31/06 A2978 RMK A01 T03130062  RH  021%=      5-min Rain = 0
KPVS 272050Z 19015G21KT 31/06 A2978 RMK A01 T03120059  RH  021%=      5-min Rain = 0
KPVS 272055Z 18016G22KT 31/06 A2978 RMK A01 T03110057  RH  021%=      5-min Rain = 0
KPVS 272100Z 19014G20KT 31/07 A2977 RMK A01 T03100065  RH  022%=      5-min Rain = 0
KPVS 272105Z 19012G20KT 31/08 A2977 RMK A01 T03130078  RH  024%=      5-min Rain = 0
KPVS 272110Z 19013G19KT 31/07 A2976 RMK A01 T03130071  RH  022%=      5-min Rain = 0
KPVS 272115Z 18015G25KT 31/07 A2976 RMK A01 T03130066  RH  022%=      5-min Rain = 0
KPVS 272120Z 18018G24KT 31/06 A2976 RMK A01 T03130057  RH  020%=      5-min Rain = 0
KPVS 272125Z 19017G26KT 31/07 A2975 RMK A01 T03130066  RH  022%=      5-min Rain = 0
KPVS 272130Z 19017G24KT 31/06 A2975 RMK A01 T03130064  RH  021%=      5-min Rain = 0
KPVS 272135Z 17016G22KT 32/06 A2975 RMK A01 T03150064  RH  021%=      5-min Rain = 0
KPVS 272140Z 18016G24KT 32/06 A2974 RMK A01 T03170064  RH  021%=      5-min Rain = 0
KPVS 272145Z 19015G21KT 32/07 A2974 RMK A01 T03160067  RH  021%=      5-min Rain = 0
KPVS 272150Z 18018G25KT 32/06 A2974 RMK A01 T03160063  RH  021%=      5-min Rain = 0
KPVS 272155Z 18016G23KT 32/07 A2974 RMK A01 T03160068  RH  022%=      5-min Rain = 0
KPVS 272200Z 18015G22KT 32/07 A2973 RMK A01 T03170068  RH  022%=      5-min Rain = 0
KPVS 272205Z 18019G25KT 32/07 A2973 RMK A01 T03180068  RH  021%=      5-min Rain = 0
KPVS 272210Z 19016G24KT 32/09 A2973 RMK A01 T03170085  RH  024%=      5-min Rain = 0
KPVS 272215Z 19019G26KT 32/08 A2973 RMK A01 T03160080  RH  023%=      5-min Rain = 0
KPVS 272220Z 19016G22KT 32/08 A2973 RMK A01 T03150081  RH  024%=      5-min Rain = 0
KPVS 272225Z 18018G25KT 32/08 A2972 RMK A01 T03150077  RH  023%=      5-min Rain = 0
KPVS 272230Z 19017G27KT 32/08 A2972 RMK A01 T03150076  RH  023%=      5-min Rain = 0
KPVS 272235Z 19016G22KT 32/08 A2972 RMK A01 T03150081  RH  024%=      5-min Rain = 0
KPVS 272240Z 19018G25KT 32/08 A2972 RMK A01 T03160079  RH  023%=      5-min Rain = 0
KPVS 272245Z 19017G25KT 32/08 A2972 RMK A01 T03150082  RH  024%=      5-min Rain = 0
KPVS 272250Z 18015G21KT 32/09 A2972 RMK A01 T03150093  RH  026%=      5-min Rain = 0
KPVS 272255Z 17016KT 31/11 A2971 RMK A01 T03140113  RH  030%=      5-min Rain = 0
KPVS 272300Z 17014G24KT 31/14 A2971 RMK A01 T03140144  RH  037%=      5-min Rain = 0
KPVS 272305Z 16018G24KT 31/16 A2971 RMK A01 T03070159  RH  042%=      5-min Rain = 0
KPVS 272310Z 16016G22KT 30/16 A2971 RMK A01 T03040163  RH  044%=      5-min Rain = 0
KPVS 272315Z 16013G19KT 30/17 A2971 RMK A01 T03040168  RH  045%=      5-min Rain = 0
KPVS 272320Z 16014G21KT 30/17 A2971 RMK A01 T03020165  RH  045%=      5-min Rain = 0
KPVS 272325Z 15013G20KT 30/17 A2971 RMK A01 T03010166  RH  045%=      5-min Rain = 0
KPVS 272330Z 15015G20KT 30/17 A2971 RMK A01 T03010165  RH  045%=      5-min Rain = 0
KPVS 272335Z 16016G24KT 30/16 A2971 RMK A01 T02990164  RH  045%=      5-min Rain = 0
KPVS 272340Z 15015G23KT 30/17 A2971 RMK A01 T02970166  RH  046%=      5-min Rain = 0
KPVS 272345Z 16014G21KT 30/17 A2971 RMK A01 T02970166  RH  046%=      5-min Rain = 0
KPVS 272350Z 15014G21KT 30/17 A297 RMK A01 T02950168  RH  048%=      5-min Rain = 0
KPVS 272355Z 16014G20KT 29/17 A297 RMK A01 T02940169  RH  048%=      5-min Rain = 0
KPVS 280000Z 16015G22KT 29/17 A297 RMK A01 T02940167  RH  047%=      5-min Rain = 0
KPVS 280005Z 16015G23KT 29/16 A297 RMK A01 T02930164  RH  047%=      5-min Rain = 0
KPVS 280010Z 16015G20KT 29/16 A297 RMK A01 T02910164  RH  047%=      5-min Rain = 0
KPVS 280015Z 16015G23KT 29/17 A297 RMK A01 T02900165  RH  048%=      5-min Rain = 0
KPVS 280020Z 16016G24KT 29/16 A297 RMK A01 T02890159  RH  046%=      5-min Rain = 0
KPVS 280025Z 16012G19KT 29/16 A297 RMK A01 T02890162  RH  047%=      5-min Rain = 0
KPVS 280030Z 16013G21KT 29/16 A297 RMK A01 T02870162  RH  048%=      5-min Rain = 0
KPVS 280035Z 16013G24KT 29/16 A297 RMK A01 T02860161  RH  048%=      5-min Rain = 0
KPVS 280040Z 16013G21KT 29/16 A297 RMK A01 T02850157  RH  047%=      5-min Rain = 0
KPVS 280045Z 16011G18KT 28/16 A297 RMK A01 T02840158  RH  048%=      5-min Rain = 0
KPVS 280050Z 15013G18KT 28/16 A297 RMK A01 T02810161  RH  049%=      5-min Rain = 0
KPVS 280055Z 15013G19KT 28/16 A297 RMK A01 T02790161  RH  050%=      5-min Rain = 0
KPVS 280100Z 15012G17KT 28/16 A297 RMK A01 T02780161  RH  050%=      5-min Rain = 0
KPVS 280105Z 15011G17KT 28/16 A297 RMK A01 T02750164  RH  052%=      5-min Rain = 0
KPVS 280110Z 15011G16KT 27/17 A297 RMK A01 T02730166  RH  053%=      5-min Rain = 0
KPVS 280115Z 15011G19KT 27/17 A2969 RMK A01 T02710167  RH  054%=      5-min Rain = 0
KPVS 280120Z 15012G18KT 27/17 A2969 RMK A01 T02690168  RH  055%=      5-min Rain = 0
KPVS 280125Z 15010G16KT 27/17 A2969 RMK A01 T02680170  RH  056%=      5-min Rain = 0
KPVS 280130Z 15011G16KT 27/17 A297 RMK A01 T02650172  RH  058%=      5-min Rain = 0
KPVS 280135Z 15011G17KT 26/17 A297 RMK A01 T02630174  RH  059%=      5-min Rain = 0
KPVS 280140Z 15011G17KT 26/18 A297 RMK A01 T02620176  RH  061%=      5-min Rain = 0
KPVS 280145Z 15010G15KT 26/18 A297 RMK A01 T02600179  RH  063%=      5-min Rain = 0
KPVS 280150Z 15010G15KT 26/18 A297 RMK A01 T02570181  RH  064%=      5-min Rain = 0
KPVS 280155Z 15010G16KT 26/18 A297 RMK A01 T02550184  RH  066%=      5-min Rain = 0
KPVS 280200Z 15011G17KT 25/19 A297 RMK A01 T02540187  RH  068%=      5-min Rain = 0
KPVS 280205Z 15011G16KT 25/19 A297 RMK A01 T02530190  RH  070%=      5-min Rain = 0
KPVS 280210Z 15011G17KT 25/19 A297 RMK A01 T02520192  RH  071%=      5-min Rain = 0
KPVS 280215Z 15011G16KT 25/19 A297 RMK A01 T02510193  RH  072%=      5-min Rain = 0
KPVS 280220Z 15010G16KT 25/19 A297 RMK A01 T02500194  RH  073%=      5-min Rain = 0
KPVS 280225Z 15012KT 25/20 A297 RMK A01 T02490195  RH  074%=      5-min Rain = 0
KPVS 280230Z 15012KT 25/20 A297 RMK A01 T02490196  RH  074%=      5-min Rain = 0
KPVS 280235Z 15012G18KT 25/20 A297 RMK A01 T02480196  RH  075%=      5-min Rain = 0
KPVS 280240Z 15013G19KT 25/20 A297 RMK A01 T02480196  RH  075%=      5-min Rain = 0
KPVS 280245Z 15014G22KT 25/20 A297 RMK A01 T02480196  RH  075%=      5-min Rain = 0
KPVS 280250Z 15015G20KT 25/20 A297 RMK A01 T02480197  RH  075%=      5-min Rain = 0
KPVS 280255Z 15013G19KT 25/20 A297 RMK A01 T02470197  RH  076%=      5-min Rain = 0
KPVS 280300Z 16014G19KT 25/20 A297 RMK A01 T02460196  RH  076%=      5-min Rain = 0
KPVS 280305Z 16014G21KT 25/20 A297 RMK A01 T02450196  RH  076%=      5-min Rain = 0
KPVS 280310Z 16014G22KT 24/20 A297 RMK A01 T02440196  RH  076%=      5-min Rain = 0
KPVS 280315Z 16015G23KT 24/20 A297 RMK A01 T02440195  RH  076%=      5-min Rain = 0
KPVS 280320Z 16016G23KT 24/19 A297 RMK A01 T02440194  RH  076%=      5-min Rain = 0
KPVS 280325Z 16015G22KT 24/19 A297 RMK A01 T02440194  RH  076%=      5-min Rain = 0
KPVS 280330Z 16014G20KT 24/19 A297 RMK A01 T02430194  RH  076%=      5-min Rain = 0
KPVS 280335Z 16014G21KT 24/19 A297 RMK A01 T02420194  RH  077%=      5-min Rain = 0
KPVS 280340Z 16014G21KT 24/19 A2971 RMK A01 T02410194  RH  077%=      5-min Rain = 0
KPVS 280345Z 16013G19KT 24/19 A2971 RMK A01 T02410194  RH  077%=      5-min Rain = 0
KPVS 280350Z 16013G19KT 24/19 A2971 RMK A01 T02400193  RH  077%=      5-min Rain = 0
KPVS 280355Z 16015G22KT 24/19 A2971 RMK A01 T02400193  RH  077%=      5-min Rain = 0
KPVS 280400Z 16015G22KT 24/19 A2971 RMK A01 T02390193  RH  077%=      5-min Rain = 0
KPVS 280405Z 16014G19KT 24/19 A2971 RMK A01 T02380193  RH  078%=      5-min Rain = 0
KPVS 280410Z 16014G21KT 24/19 A2971 RMK A01 T02370192  RH  078%=      5-min Rain = 0
KPVS 280415Z 16013G19KT 24/19 A2971 RMK A01 T02360192  RH  078%=      5-min Rain = 0
KPVS 280420Z 16013G21KT 24/19 A2971 RMK A01 T02350192  RH  079%=      5-min Rain = 0
KPVS 280425Z 16013G19KT 23/19 A2971 RMK A01 T02340192  RH  079%=      5-min Rain = 0
KPVS 280430Z 16012G17KT 23/19 A2971 RMK A01 T02330191  RH  079%=      5-min Rain = 0
KPVS 280435Z 16012KT 23/19 A2971 RMK A01 T02310191  RH  080%=      5-min Rain = 0
KPVS 280440Z 16012G18KT 23/19 A2971 RMK A01 T02300191  RH  081%=      5-min Rain = 0
KPVS 280445Z 16012KT 23/19 A2971 RMK A01 T02280191  RH  082%=      5-min Rain = 0
KPVS 280450Z 17011KT 23/19 A2972 RMK A01 T02270191  RH  082%=      5-min Rain = 0
KPVS 280455Z 17011KT 23/19 A2972 RMK A01 T02250191  RH  083%=      5-min Rain = 0

Page generated in 0.0238 seconds.